Time;durP1;ratioP1;P1;durP2;ratioP2;P2;SDS_P1;SDS_P2;PMS_P1;PMS_P2;Temp;Humidity;BMP_temperature;BMP_pressure;BME280_temperature;BME280_humidity;BME280_pressure;Samples;Min_cycle;Max_cycle;Signal;HPM_P1;HPM_P2
2023/05/12 00:00:21;;;;;;;5.57;3.22;;;;;;;10.73;100.00;98605.56;5051610;28;20630;-63
2023/05/12 00:02:47;;;;;;;3.55;3.25;;;;;;;10.76;100.00;98611.34;5069508;28;20240;-63
2023/05/12 00:05:12;;;;;;;3.72;3.28;;;;;;;10.60;100.00;98573.63;5069523;28;20192;-63
2023/05/12 00:07:38;;;;;;;4.15;3.22;;;;;;;10.66;100.00;98578.41;5069467;28;20189;-61
2023/05/12 00:10:03;;;;;;;3.58;2.92;;;;;;;10.95;100.00;98634.25;5069368;28;20258;-63
2023/05/12 00:12:29;;;;;;;3.42;3.10;;;;;;;11.04;100.00;98642.22;5069224;28;20197;-61
2023/05/12 00:14:54;;;;;;;3.70;3.40;;;;;;;10.69;100.00;98573.84;5069356;28;20194;-61
2023/05/12 00:17:20;;;;;;;4.85;3.15;;;;;;;11.21;100.00;98664.44;5069388;28;20219;-62
2023/05/12 00:19:47;;;;;;;3.67;3.38;;;;;;;11.17;100.00;98642.25;5069064;28;20647;-61
2023/05/12 00:22:13;;;;;;;4.88;3.55;;;;;;;10.63;100.00;98566.50;5069328;28;20181;-62
2023/05/12 00:24:40;;;;;;;6.05;3.30;;;;;;;10.82;100.00;98605.78;5029178;28;20587;-61
2023/05/12 00:27:06;;;;;;;5.90;2.90;;;;;;;11.21;100.00;98672.19;5029270;28;20203;-61
2023/05/12 00:29:51;;;;;;;3.75;3.30;;;;;;;10.59;100.00;98566.81;5029058;28;20229;-61
2023/05/12 00:32:16;;;;;;;3.53;3.22;;;;;;;10.81;100.00;98619.63;5029325;28;20194;-61
2023/05/12 00:34:42;;;;;;;3.90;3.22;;;;;;;10.88;100.00;98645.94;5029927;28;20224;-61
2023/05/12 00:37:07;;;;;;;5.00;4.03;;;;;;;10.93;100.00;98656.81;5033304;28;20269;-61
2023/05/12 00:39:33;;;;;;;3.10;2.90;;;;;;;10.54;100.00;98576.63;5028632;28;20317;-61
2023/05/12 00:41:58;;;;;;;3.65;3.35;;;;;;;10.81;100.00;98639.50;5013429;28;20191;-61
2023/05/12 00:44:24;;;;;;;4.13;3.33;;;;;;;10.96;100.00;98657.44;5013357;28;20248;-61
2023/05/12 00:46:50;;;;;;;7.25;3.28;;;;;;;10.74;100.00;98627.91;5013359;28;20241;-61
2023/05/12 00:49:15;;;;;;;3.38;3.13;;;;;;;10.71;100.00;98628.09;5013304;28;20245;-61
2023/05/12 00:51:42;;;;;;;3.70;3.00;;;;;;;10.58;100.00;98609.13;5013181;28;20721;-61
2023/05/12 00:54:08;;;;;;;3.47;3.03;;;;;;;10.90;100.00;98664.78;5013289;28;20654;-61
2023/05/12 00:56:38;;;;;;;5.90;3.10;;;;;;;10.58;100.00;98643.63;5048528;28;20182;-61
2023/05/12 00:59:04;;;;;;;3.75;3.45;;;;;;;10.54;100.00;98668.03;5052653;28;20220;-61
2023/05/12 01:01:31;;;;;;;3.45;3.15;;;;;;;10.67;100.00;98648.19;5054394;28;20189;-61
2023/05/12 01:03:57;;;;;;;3.83;3.25;;;;;;;10.84;100.00;98644.47;5055170;28;20188;-61
2023/05/12 01:06:53;;;;;;;3.13;2.85;;;;;;;11.23;100.00;98675.50;5055077;28;20552;-61
2023/05/12 01:09:18;;;;;;;2.75;2.55;;;;;;;10.82;100.00;98628.22;5034031;28;20676;-61
2023/05/12 01:11:44;;;;;;;6.47;3.05;;;;;;;10.64;100.00;98657.91;5032622;28;20301;-61
2023/05/12 01:14:09;;;;;;;3.42;3.10;;;;;;;10.22;100.00;98634.78;5032631;28;20260;-61
2023/05/12 01:17:04;;;;;;;3.63;3.25;;;;;;;10.32;100.00;98659.13;5032546;28;20197;-61
2023/05/12 01:19:49;;;;;;;3.65;2.92;;;;;;;10.58;100.00;98668.66;5031503;28;20256;-61
2023/05/12 01:22:16;;;;;;;6.18;3.03;;;;;;;10.80;100.00;98661.16;5032611;28;20568;-61
2023/05/12 01:24:51;;;;;;;3.53;3.22;;;;;;;10.69;100.00;98663.63;5032418;28;20194;-61
2023/05/12 01:27:18;;;;;;;3.20;3.00;;;;;;;10.11;100.00;98575.16;5032494;28;20594;-61
2023/05/12 01:29:46;;;;;;;3.50;3.20;;;;;;;10.11;100.00;98577.75;5032261;28;20191;-61
2023/05/12 01:32:12;;;;;;;3.60;3.17;;;;;;;10.15;100.00;98572.28;5032332;28;20178;-61
2023/05/12 01:34:37;;;;;;;3.70;2.92;;;;;;;10.58;100.00;98614.31;5032262;28;20252;-61
2023/05/12 01:37:03;;;;;;;3.58;3.20;;;;;;;10.52;100.00;98571.53;5032267;28;20237;-62
2023/05/12 01:39:28;;;;;;;4.63;3.40;;;;;;;10.92;100.00;98622.31;5034106;28;20622;-62
2023/05/12 01:41:54;;;;;;;6.57;3.38;;;;;;;11.14;100.00;98647.66;5054497;28;20647;-61
2023/05/12 01:44:20;;;;;;;3.63;2.95;;;;;;;11.04;100.00;98628.47;5054447;28;20185;-62
2023/05/12 01:46:45;;;;;;;4.57;3.25;;;;;;;10.55;100.00;98586.03;5053387;28;20212;-61
2023/05/12 01:49:11;;;;;;;4.32;3.33;;;;;;;10.66;100.00;98589.59;5054308;28;20177;-62
2023/05/12 01:51:36;;;;;;;3.97;3.60;;;;;;;10.75;100.00;98580.41;5054188;28;20202;-62
2023/05/12 01:54:02;;;;;;;4.80;3.08;;;;;;;11.27;100.00;98656.25;5054296;28;20178;-61
2023/05/12 01:56:28;;;;;;;4.63;2.78;;;;;;;11.35;100.00;98664.31;5053918;28;20732;-61
2023/05/12 01:58:53;;;;;;;5.47;3.75;;;;;;;10.92;100.00;98591.25;5054076;28;20735;-61
2023/05/12 02:01:18;;;;;;;4.55;2.97;;;;;;;10.81;100.00;98578.22;5053789;28;20604;-61
2023/05/12 02:03:44;;;;;;;4.82;3.75;;;;;;;10.81;100.00;98578.22;5054043;28;20319;-62
2023/05/12 02:06:09;;;;;;;7.97;3.40;;;;;;;10.84;100.00;98597.88;5054028;28;20181;-61
2023/05/12 02:08:35;;;;;;;4.30;3.42;;;;;;;10.82;100.00;98581.63;5053894;28;20177;-62
2023/05/12 02:11:07;;;;;;;3.70;3.38;;;;;;;11.41;100.00;98671.66;5053851;28;20550;-61
2023/05/12 02:13:33;;;;;;;6.45;3.80;;;;;;;11.07;100.00;98610.13;5053904;28;20181;-61
2023/05/12 02:15:59;;;;;;;3.63;3.03;;;;;;;11.22;100.00;98635.00;5053842;28;20174;-61
2023/05/12 02:18:25;;;;;;;4.03;3.47;;;;;;;10.92;100.00;98569.75;5053822;28;20177;-61
2023/05/12 02:20:50;;;;;;;4.97;3.30;;;;;;;11.32;100.00;98651.59;5053708;28;20703;-61
2023/05/12 02:23:15;;;;;;;4.18;2.70;;;;;;;10.79;100.00;98566.31;5053765;28;20180;-61
2023/05/12 02:25:41;;;;;;;3.75;3.15;;;;;;;11.10;100.00;98599.56;5053657;28;20223;-62
2023/05/12 02:28:10;;;;;;;3.20;3.00;;;;;;;11.31;100.00;98650.75;5053677;28;20209;-61
2023/05/12 02:30:36;;;;;;;5.20;3.10;;;;;;;11.16;100.00;98641.41;5053392;28;20206;-61
2023/05/12 02:33:04;;;;;;;5.78;3.30;;;;;;;11.10;100.00;98664.31;5053548;28;20260;-61
2023/05/12 02:35:30;;;;;;;3.92;3.33;;;;;;;10.96;100.00;98647.09;5053387;28;20188;-62
2023/05/12 02:37:55;;;;;;;6.38;3.78;;;;;;;10.84;100.00;98647.91;5053125;28;20640;-61
2023/05/12 02:40:21;;;;;;;3.72;3.08;;;;;;;10.14;100.00;98543.94;5053343;28;20181;-61
2023/05/12 02:42:46;;;;;;;3.83;3.05;;;;;;;10.94;100.00;98650.72;5053531;28;20186;-62
2023/05/12 02:45:12;;;;;;;3.60;3.08;;;;;;;11.24;100.00;98672.81;5053303;28;20166;-62
2023/05/12 02:47:37;;;;;;;4.75;3.67;;;;;;;11.22;100.00;98650.53;5052914;28;20182;-61
2023/05/12 02:50:03;;;;;;;4.80;3.60;;;;;;;11.34;100.00;98660.06;5053104;28;20231;-61
2023/05/12 02:52:28;;;;;;;4.78;3.38;;;;;;;11.06;100.00;98609.31;5053148;28;20178;-61
2023/05/12 02:54:55;;;;;;;3.88;3.40;;;;;;;11.44;100.00;98661.94;5053089;28;20222;-62
2023/05/12 02:57:20;;;;;;;3.70;3.40;;;;;;;11.28;100.00;98656.16;5053075;28;20265;-61
2023/05/12 02:59:46;;;;;;;4.25;3.20;;;;;;;11.04;100.00;98636.22;5053048;28;20253;-61
2023/05/12 03:02:11;;;;;;;3.92;3.10;;;;;;;10.92;100.00;98657.75;5052724;28;20166;-61
2023/05/12 03:04:37;;;;;;;5.85;3.15;;;;;;;10.18;100.00;98571.25;5052555;28;20178;-61
2023/05/12 03:07:02;;;;;;;3.95;3.60;;;;;;;10.83;100.00;98664.38;5052841;28;20259;-61
2023/05/12 03:09:27;;;;;;;4.38;3.30;;;;;;;10.68;100.00;98613.59;5052779;28;20205;-61
2023/05/12 03:11:53;;;;;;;4.32;3.10;;;;;;;10.54;100.00;98581.78;5052684;28;20209;-61
2023/05/12 03:14:18;;;;;;;4.07;3.20;;;;;;;10.68;100.00;98594.69;5052763;28;20174;-62
2023/05/12 03:16:44;;;;;;;4.32;3.45;;;;;;;10.79;100.00;98590.44;5052647;28;20177;-62
2023/05/12 03:19:09;;;;;;;4.82;3.85;;;;;;;11.37;100.00;98681.41;5052638;28;20209;-61
2023/05/12 03:21:34;;;;;;;4.50;2.80;;;;;;;11.43;100.00;98686.19;5052478;28;20182;-62
2023/05/12 03:24:00;;;;;;;5.78;3.17;;;;;;;11.20;100.00;98645.44;5052536;28;20344;-61
2023/05/12 03:26:25;;;;;;;3.70;3.10;;;;;;;10.98;100.00;98654.75;5052441;28;20166;-61
2023/05/12 03:28:51;;;;;;;4.72;3.67;;;;;;;11.13;100.00;98677.03;5052450;28;20235;-61
2023/05/12 03:31:16;;;;;;;4.25;3.60;;;;;;;11.31;100.00;98683.56;5052333;28;20198;-62
2023/05/12 03:33:42;;;;;;;3.70;3.40;;;;;;;11.03;100.00;98644.94;5052349;28;20209;-61
2023/05/12 03:36:07;;;;;;;3.72;3.42;;;;;;;10.53;100.00;98611.19;5052072;28;20173;-61
2023/05/12 03:38:33;;;;;;;3.35;2.85;;;;;;;10.78;100.00;98648.31;5052313;28;20180;-61
2023/05/12 03:41:05;;;;;;;4.20;3.90;;;;;;;10.73;100.00;98680.59;5052253;28;20178;-61
2023/05/12 03:43:31;;;;;;;5.55;3.58;;;;;;;10.59;100.00;98678.06;5052195;28;20714;-61
2023/05/12 03:45:57;;;;;;;6.13;4.50;;;;;;;10.02;100.00;98610.16;5052212;28;20174;-61
2023/05/12 03:48:22;;;;;;;7.25;4.68;;;;;;;10.69;100.00;98694.66;5052112;28;20257;-61
2023/05/12 03:50:48;;;;;;;7.18;4.05;;;;;;;10.63;100.00;98676.94;5052163;28;20208;-61
2023/05/12 03:53:14;;;;;;;4.68;4.28;;;;;;;10.27;100.00;98663.78;5052053;28;20647;-62
2023/05/12 03:55:40;;;;;;;3.95;3.60;;;;;;;10.11;100.00;98657.91;5052002;28;20173;-61
2023/05/12 03:58:06;;;;;;;5.80;3.78;;;;;;;10.21;100.00;98669.34;5069181;28;20188;-61
2023/05/12 04:00:31;;;;;;;4.75;3.80;;;;;;;10.49;100.00;98713.19;5069628;28;20197;-62
2023/05/12 04:02:57;;;;;;;4.63;4.13;;;;;;;10.26;100.00;98686.22;5069529;28;20183;-61
2023/05/12 04:05:23;;;;;;;5.47;4.38;;;;;;;10.24;100.00;98708.75;5069501;28;20188;-61
2023/05/12 04:07:48;;;;;;;6.93;4.30;;;;;;;9.61;100.00;98625.75;5069235;28;20273;-61
2023/05/12 04:10:13;;;;;;;5.03;4.53;;;;;;;9.81;100.00;98641.69;5068883;28;20259;-62
2023/05/12 04:12:39;;;;;;;5.18;4.25;;;;;;;10.32;100.00;98708.25;5069344;28;20651;-61
2023/05/12 04:15:05;;;;;;;5.40;4.47;;;;;;;9.98;100.00;98647.47;5069416;28;20816;-61
2023/05/12 04:17:30;;;;;;;5.93;4.00;;;;;;;10.26;100.00;98672.44;5069338;28;20189;-62
2023/05/12 04:19:56;;;;;;;4.38;3.97;;;;;;;10.05;100.00;98622.91;5069397;28;20177;-62
2023/05/12 04:22:21;;;;;;;9.75;4.13;;;;;;;10.35;100.00;98625.31;5069337;28;20181;-61
2023/05/12 04:24:46;;;;;;;5.80;4.10;;;;;;;11.15;100.00;98714.03;5069215;28;20185;-61
2023/05/12 04:27:12;;;;;;;4.70;4.00;;;;;;;10.83;100.00;98637.66;5069273;28;20181;-62
2023/05/12 04:29:37;;;;;;;4.93;3.83;;;;;;;11.14;100.00;98673.53;5054565;28;20240;-62
2023/05/12 04:32:03;;;;;;;6.13;4.07;;;;;;;10.95;100.00;98629.06;5049145;28;20292;-63
2023/05/12 04:34:28;;;;;;;4.72;4.03;;;;;;;11.43;100.00;98711.28;5049189;28;20216;-62
2023/05/12 04:36:54;;;;;;;5.95;4.80;;;;;;;11.38;100.00;98702.97;5029136;28;20189;-63
2023/05/12 04:39:19;;;;;;;6.53;5.05;;;;;;;11.60;100.00;98721.34;5043630;28;20269;-63
2023/05/12 04:41:44;;;;;;;6.57;4.35;;;;;;;11.27;100.00;98659.66;5049060;28;20275;-63
2023/05/12 04:44:10;;;;;;;6.55;4.65;;;;;;;11.71;100.00;98721.44;5049109;28;20201;-63
2023/05/12 04:46:35;;;;;;;6.40;5.05;;;;;;;11.71;100.00;98711.09;5049068;28;20228;-63
2023/05/12 04:49:01;;;;;;;6.03;5.30;;;;;;;11.74;100.00;98709.09;5049088;28;20273;-63
2023/05/12 04:51:26;;;;;;;6.93;5.75;;;;;;;11.09;100.00;98616.84;5048967;28;20206;-63
2023/05/12 04:53:51;;;;;;;6.75;5.72;;;;;;;11.46;100.00;98679.97;5049071;28;20667;-63
2023/05/12 04:56:17;;;;;;;5.55;4.90;;;;;;;11.10;100.00;98615.09;5049015;28;20186;-63
2023/05/12 04:58:42;;;;;;;8.27;5.20;;;;;;;11.68;100.00;98706.13;5048847;28;20189;-63
2023/05/12 05:01:08;;;;;;;6.28;5.28;;;;;;;11.68;100.00;98700.94;5048979;28;20178;-63
2023/05/12 05:03:33;;;;;;;7.57;4.90;;;;;;;11.11;100.00;98614.16;5048911;28;20262;-63
2023/05/12 05:05:58;;;;;;;9.63;4.93;;;;;;;11.40;100.00;98680.38;5048886;28;20331;-63
2023/05/12 05:08:24;;;;;;;6.80;5.20;;;;;;;11.27;100.00;98632.94;5050324;28;20190;-62
2023/05/12 05:10:49;;;;;;;8.32;4.60;;;;;;;11.44;100.00;98677.47;5051216;28;20288;-62
2023/05/12 05:13:15;;;;;;;7.38;5.45;;;;;;;11.13;100.00;98645.97;5051512;28;20246;-62
2023/05/12 05:15:48;;;;;;;6.65;4.80;;;;;;;11.15;100.00;98647.53;5051205;28;20178;-62
2023/05/12 05:18:14;;;;;;;5.28;4.82;;;;;;;11.23;100.00;98659.97;5050959;28;20610;-62
2023/05/12 05:20:39;;;;;;;5.05;4.57;;;;;;;11.04;100.00;98636.22;5051178;28;20173;-61
2023/05/12 05:23:05;;;;;;;8.27;5.20;;;;;;;11.70;100.00;98724.97;5054020;28;20178;-62
2023/05/12 05:25:31;;;;;;;6.45;5.07;;;;;;;11.07;100.00;98630.84;5054795;28;20550;-62
2023/05/12 05:27:57;;;;;;;6.55;5.40;;;;;;;11.56;100.00;98718.09;5054694;28;20182;-62
2023/05/12 05:30:22;;;;;;;7.80;5.15;;;;;;;11.63;100.00;98734.09;5054536;28;20201;-62
2023/05/12 05:32:48;;;;;;;6.88;4.85;;;;;;;11.52;100.00;98716.66;5054635;28;20174;-62
2023/05/12 05:35:13;;;;;;;8.25;5.32;;;;;;;11.47;100.00;98715.31;5071994;28;20272;-62
2023/05/12 05:37:39;;;;;;;6.15;4.82;;;;;;;11.54;100.00;98724.31;5071907;28;20189;-62
2023/05/12 05:40:05;;;;;;;9.23;5.22;;;;;;;11.58;100.00;98729.25;5072059;28;20185;-62
2023/05/12 05:42:30;;;;;;;6.50;5.22;;;;;;;11.04;100.00;98646.59;5071982;28;20728;-62
2023/05/12 05:44:56;;;;;;;8.18;5.00;;;;;;;11.39;100.00;98704.63;5092001;28;20185;-62
2023/05/12 05:47:21;;;;;;;5.55;5.05;;;;;;;11.61;100.00;98720.44;5092123;28;20271;-62
2023/05/12 05:49:46;;;;;;;9.45;5.63;;;;;;;11.43;100.00;98675.00;5091993;28;20188;-62
2023/05/12 05:52:12;;;;;;;7.68;4.60;;;;;;;11.61;100.00;98697.13;5092039;28;20216;-62
2023/05/12 05:54:37;;;;;;;8.95;4.85;;;;;;;11.86;100.00;98736.81;5091961;28;20216;-62
2023/05/12 05:57:03;;;;;;;6.20;4.95;;;;;;;11.79;100.00;98711.41;5092020;28;20271;-62
2023/05/12 05:59:28;;;;;;;9.52;5.57;;;;;;;11.79;100.00;98726.97;5091558;28;20736;-62
2023/05/12 06:01:54;;;;;;;8.00;5.07;;;;;;;11.93;100.00;98737.19;5091824;28;20196;-63
2023/05/12 06:04:19;;;;;;;8.75;5.22;;;;;;;11.70;100.00;98707.69;5091794;28;20188;-62
2023/05/12 06:06:44;;;;;;;8.80;5.20;;;;;;;11.55;100.00;98669.81;5077238;28;20193;-62
2023/05/12 06:09:11;;;;;;;7.15;5.07;;;;;;;11.64;100.00;98668.38;5071550;28;20193;-62
2023/05/12 06:11:38;;;;;;;5.50;4.80;;;;;;;11.91;100.00;98689.81;5071320;28;20710;-62
2023/05/12 06:14:03;;;;;;;7.90;6.20;;;;;;;12.19;100.00;98723.28;5071495;28;20185;-62
2023/05/12 06:16:29;;;;;;;8.43;5.10;;;;;;;11.88;100.00;98658.91;5058224;28;20186;-63
2023/05/12 06:18:54;;;;;;;7.30;5.55;;;;;;;11.93;100.00;98660.25;5053466;28;20658;-63
2023/05/12 06:21:20;;;;;;;11.27;6.15;;;;;;;12.47;100.00;98736.78;5053733;28;20174;-64
2023/05/12 06:23:45;;;;;;;8.70;6.20;;;;;;;12.28;100.00;98718.25;5053379;28;20174;-63
2023/05/12 06:26:10;;;;;;;7.05;4.30;;;;;;;12.40;100.00;98758.91;5053656;28;20201;-63
2023/05/12 06:28:36;;;;;;;4.85;4.45;;;;;;;11.84;100.00;98654.88;5053857;28;20256;-62
2023/05/12 06:31:01;;;;;;;8.80;4.68;;;;;;;12.03;100.00;98687.19;5070842;28;20597;-62
2023/05/12 06:33:27;;;;;;;7.63;4.55;;;;;;;12.17;100.00;98678.44;5070944;28;20185;-62
2023/05/12 06:35:52;;;;;;;5.07;4.43;;;;;;;12.71;100.00;98748.00;5071032;28;20272;-63
2023/05/12 06:38:17;;;;;;;7.70;4.13;;;;;;;12.65;100.00;98713.88;5071021;28;20709;-63
2023/05/12 06:40:43;;;;;;;4.65;3.88;;;;;;;12.68;100.00;98724.88;5070892;28;20189;-63
2023/05/12 06:43:08;;;;;;;6.63;3.75;;;;;;;12.88;98.69;98736.41;5070953;28;20173;-63
2023/05/12 06:45:34;;;;;;;4.45;3.47;;;;;;;12.57;97.79;98666.88;5070788;28;20192;-63
2023/05/12 06:48:00;;;;;;;6.10;3.63;;;;;;;13.05;97.78;98738.63;5070805;28;20192;-63
2023/05/12 06:50:25;;;;;;;6.35;3.65;;;;;;;12.69;95.33;98661.63;5070657;28;20585;-63
2023/05/12 06:52:51;;;;;;;4.68;2.90;;;;;;;13.16;94.57;98681.50;5070724;28;20188;-63
2023/05/12 06:55:19;;;;;;;4.70;3.42;;;;;;;13.34;93.13;98672.34;5070713;28;20234;-63
2023/05/12 06:57:44;;;;;;;4.68;3.45;;;;;;;13.43;90.36;98674.25;5070649;28;20734;-63
2023/05/12 07:00:10;;;;;;;5.05;3.22;;;;;;;13.68;90.10;98711.28;5070742;28;20343;-62
2023/05/12 07:02:35;;;;;;;4.03;3.40;;;;;;;13.95;88.98;98760.34;5057084;28;20268;-63
2023/05/12 07:05:01;;;;;;;3.53;3.17;;;;;;;13.55;87.99;98701.91;5053266;28;20184;-62
2023/05/12 07:07:26;;;;;;;5.30;3.40;;;;;;;13.76;87.93;98745.31;5050245;28;20188;-62
2023/05/12 07:09:51;;;;;;;7.80;3.20;;;;;;;13.61;87.64;98741.28;5050443;28;20193;-62
2023/05/12 07:12:17;;;;;;;6.63;2.80;;;;;;;13.46;90.55;98757.19;5050331;28;20228;-62
2023/05/12 07:14:42;;;;;;;4.20;3.90;;;;;;;13.24;91.33;98716.38;5070155;28;20677;-63
2023/05/12 07:17:08;;;;;;;7.50;3.15;;;;;;;12.93;92.13;98664.16;5070180;28;20188;-62
2023/05/12 07:19:34;;;;;;;9.55;3.35;;;;;;;13.37;90.40;98729.28;5070153;28;20193;-62
2023/05/12 07:22:00;;;;;;;6.47;2.72;;;;;;;13.20;87.91;98667.34;5070178;28;20691;-62
2023/05/12 07:24:26;;;;;;;4.25;3.30;;;;;;;13.48;87.69;98703.31;5070076;28;20238;-63
2023/05/12 07:26:52;;;;;;;3.13;2.88;;;;;;;13.68;87.58;98726.03;5070073;28;20222;-62
2023/05/12 07:29:18;;;;;;;5.05;3.15;;;;;;;13.99;83.70;98738.38;5070048;28;20643;-62
2023/05/12 07:31:43;;;;;;;5.47;3.00;;;;;;;14.10;83.51;98746.16;5069885;28;20221;-62
2023/05/12 07:34:08;;;;;;;4.45;2.92;;;;;;;13.96;83.76;98734.22;5069872;28;20276;-62
2023/05/12 07:36:34;;;;;;;4.35;2.47;;;;;;;13.93;83.73;98718.03;5069937;28;20263;-62
2023/05/12 07:39:00;;;;;;;2.60;2.38;;;;;;;13.60;82.74;98677.22;5084801;28;20216;-62
2023/05/12 07:41:25;;;;;;;3.17;2.65;;;;;;;14.10;81.56;98759.16;5090062;28;20246;-62
2023/05/12 07:43:51;;;;;;;2.78;2.47;;;;;;;13.97;82.70;98696.00;5090059;28;20180;-62
2023/05/12 07:46:16;;;;;;;3.75;3.10;;;;;;;14.14;83.05;98665.16;5061420;28;20632;-62
2023/05/12 07:48:42;;;;;;;5.15;3.03;;;;;;;14.89;81.27;98757.19;5052164;28;20562;-62
2023/05/12 07:51:08;;;;;;;7.60;3.00;;;;;;;15.10;79.93;98763.28;5052066;28;20205;-63
2023/05/12 07:53:33;;;;;;;3.25;3.00;;;;;;;14.73;78.63;98673.41;5052137;28;20290;-62
2023/05/12 07:55:59;;;;;;;4.95;2.95;;;;;;;15.15;76.45;98761.13;5051761;28;20178;-62
2023/05/12 07:58:24;;;;;;;3.08;2.40;;;;;;;14.71;74.47;98681.38;5051933;28;20193;-62
2023/05/12 08:00:50;;;;;;;5.65;2.70;;;;;;;14.76;76.25;98726.06;5051994;28;20611;-62
2023/05/12 08:03:15;;;;;;;4.45;3.00;;;;;;;14.51;75.14;98742.00;5051939;28;20565;-62
2023/05/12 08:05:41;;;;;;;3.33;2.50;;;;;;;14.01;76.74;98671.44;5069362;28;20281;-62
2023/05/12 08:08:14;;;;;;;3.95;2.25;;;;;;;14.12;75.83;98720.84;5069487;28;20254;-62
2023/05/12 08:10:40;;;;;;;2.88;2.40;;;;;;;13.97;75.56;98659.59;5069451;28;20213;-62
2023/05/12 08:13:05;;;;;;;4.47;2.47;;;;;;;14.35;74.72;98712.91;5069500;28;20226;-62
2023/05/12 08:15:30;;;;;;;3.45;2.30;;;;;;;14.51;72.59;98712.53;5069512;28;20623;-62
2023/05/12 08:17:56;;;;;;;4.30;2.50;;;;;;;14.08;70.71;98673.44;5069438;28;20187;-62
2023/05/12 08:20:21;;;;;;;2.38;2.15;;;;;;;14.31;68.55;98705.47;5069411;28;20195;-62
2023/05/12 08:22:47;;;;;;;5.20;2.05;;;;;;;14.20;67.52;98692.47;5069383;28;20749;-62
2023/05/12 08:25:12;;;;;;;2.08;1.98;;;;;;;14.65;64.71;98757.34;5069343;28;20189;-62
2023/05/12 08:27:38;;;;;;;3.83;2.50;;;;;;;14.12;66.39;98705.25;5069335;28;20268;-62
2023/05/12 08:30:03;;;;;;;2.13;1.92;;;;;;;14.17;66.76;98708.31;5069511;28;20181;-62
2023/05/12 08:32:29;;;;;;;3.95;2.10;;;;;;;14.48;67.52;98752.69;5069225;28;20185;-62
2023/05/12 08:34:54;;;;;;;3.58;2.28;;;;;;;14.65;68.17;98762.56;5069331;28;20343;-62
2023/05/12 08:37:20;;;;;;;3.28;2.33;;;;;;;14.58;69.02;98750.19;5055354;28;20280;-62
2023/05/12 08:39:45;;;;;;;6.35;3.15;;;;;;;14.48;68.15;98718.00;5051676;28;20263;-62
2023/05/12 08:42:42;;;;;;;3.33;2.58;;;;;;;14.77;68.62;98760.78;5051585;28;20535;-62
2023/05/12 08:45:10;;;;;;;3.53;2.28;;;;;;;14.65;68.49;98720.09;5051634;28;20177;-62
2023/05/12 08:47:36;;;;;;;2.35;2.00;;;;;;;14.72;65.50;98719.47;5050322;28;20174;-62
2023/05/12 08:50:03;;;;;;;2.17;2.00;;;;;;;14.39;65.17;98682.25;5048818;28;20607;-62
2023/05/12 08:52:32;;;;;;;2.38;2.13;;;;;;;15.12;64.22;98771.81;5049073;28;20554;-62
2023/05/12 08:54:58;;;;;;;2.72;2.08;;;;;;;15.00;64.50;98759.75;5049029;28;20300;-62
2023/05/12 08:57:25;;;;;;;3.42;2.20;;;;;;;14.63;66.06;98695.97;5052555;28;20209;-62
2023/05/12 08:59:54;;;;;;;2.50;2.28;;;;;;;15.04;65.95;98753.38;5052713;28;20206;-62
2023/05/12 09:02:23;;;;;;;2.22;2.03;;;;;;;14.98;68.27;98735.63;5052820;28;20194;-62
2023/05/12 09:04:53;;;;;;;2.33;2.03;;;;;;;15.22;67.68;98757.88;5052757;28;20211;-62
2023/05/12 09:07:21;;;;;;;2.28;2.10;;;;;;;15.07;66.16;98711.41;5052773;28;20185;-62
2023/05/12 09:09:50;;;;;;;2.50;2.30;;;;;;;14.81;66.63;98668.41;5052719;28;20182;-62
2023/05/12 09:12:18;;;;;;;2.58;2.22;;;;;;;15.21;66.19;98714.53;5052582;28;20255;-62
2023/05/12 09:14:57;;;;;;;2.38;2.08;;;;;;;15.06;66.56;98681.09;5052564;28;20289;-63
2023/05/12 09:17:22;;;;;;;4.63;2.00;;;;;;;15.58;66.19;98731.41;5052676;28;20173;-63
2023/05/12 09:19:47;;;;;;;2.28;2.10;;;;;;;15.78;63.39;98729.72;5052547;28;20182;-63
2023/05/12 09:22:13;;;;;;;2.15;1.88;;;;;;;15.89;61.86;98717.44;5052459;28;20596;-63
2023/05/12 09:24:40;;;;;;;2.75;2.15;;;;;;;16.26;61.29;98764.75;5052434;28;20666;-64
2023/05/12 09:27:06;;;;;;;2.42;2.17;;;;;;;16.04;60.96;98765.72;5053086;28;20193;-64
2023/05/12 09:29:32;;;;;;;3.15;2.78;;;;;;;15.62;60.30;98687.66;5054755;28;20177;-64
2023/05/12 09:32:00;;;;;;;3.30;2.17;;;;;;;15.88;61.96;98760.16;5054648;28;20699;-63
2023/05/12 09:34:31;;;;;;;3.05;2.58;;;;;;;15.16;62.48;98674.16;5054630;28;20272;-63
2023/05/12 09:37:03;;;;;;;3.13;2.03;;;;;;;15.29;62.20;98672.19;5072037;28;20534;-63
2023/05/12 09:39:29;;;;;;;3.40;2.10;;;;;;;15.85;61.20;98721.25;5072222;28;20216;-63
2023/05/12 09:41:55;;;;;;;2.05;1.92;;;;;;;15.67;60.50;98673.25;5072118;28;20227;-63
2023/05/12 09:44:22;;;;;;;3.88;2.20;;;;;;;16.20;60.41;98749.59;5072109;28;20563;-64
2023/05/12 09:46:48;;;;;;;1.95;1.80;;;;;;;16.11;60.24;98748.59;5072046;28;20185;-63
2023/05/12 09:49:26;;;;;;;3.67;1.90;;;;;;;15.92;59.95;98693.69;5072003;28;20218;-62
2023/05/12 09:51:56;;;;;;;2.63;1.80;;;;;;;15.93;61.20;98668.44;5071932;28;20286;-62
2023/05/12 09:54:32;;;;;;;3.20;1.85;;;;;;;15.71;59.47;98664.22;5071911;28;20271;-62
2023/05/12 09:57:01;;;;;;;2.15;1.88;;;;;;;15.66;61.15;98696.84;5071875;28;20737;-63
2023/05/12 09:59:31;;;;;;;3.70;1.80;;;;;;;16.06;62.54;98752.53;5071558;28;20307;-63
2023/05/12 10:02:01;;;;;;;2.45;2.30;;;;;;;15.85;58.91;98700.38;5071814;28;20193;-61
2023/05/12 10:04:30;;;;;;;3.83;1.90;;;;;;;15.88;59.84;98662.78;5071690;28;20177;-61
2023/05/12 10:06:57;;;;;;;2.22;2.03;;;;;;;16.11;57.47;98730.31;5069559;28;20184;-63
2023/05/12 10:09:32;;;;;;;2.40;2.03;;;;;;;16.39;56.75;98736.63;5053956;28;20225;-63
2023/05/12 10:11:58;;;;;;;2.03;1.80;;;;;;;16.36;56.25;98742.06;5053871;28;20684;-62
2023/05/12 10:14:24;;;;;;;2.10;1.90;;;;;;;16.10;57.01;98659.97;5054158;28;20314;-61
2023/05/12 10:16:50;;;;;;;3.47;2.30;;;;;;;16.59;57.40;98748.78;5053905;28;20169;-64
2023/05/12 10:19:17;;;;;;;2.30;2.13;;;;;;;16.46;56.88;98696.78;5053555;28;20709;-61
2023/05/12 10:21:46;;;;;;;2.83;2.15;;;;;;;16.64;56.15;98686.50;5053782;28;20303;-61
2023/05/12 10:24:17;;;;;;;2.80;1.83;;;;;;;16.89;56.25;98714.69;5053710;28;20170;-62
2023/05/12 10:26:43;;;;;;;2.35;1.80;;;;;;;16.88;54.90;98681.69;5053725;28;20562;-62
2023/05/12 10:29:11;;;;;;;5.20;1.80;;;;;;;17.48;55.57;98747.63;5053652;28;20170;-62
2023/05/12 10:31:37;;;;;;;2.13;1.95;;;;;;;17.00;54.94;98659.66;5053575;28;20201;-62
2023/05/12 10:34:03;;;;;;;2.13;2.00;;;;;;;16.80;54.53;98684.16;5053248;28;20647;-62
2023/05/12 10:36:29;;;;;;;3.92;1.85;;;;;;;17.01;54.49;98692.69;5053536;28;20172;-61
2023/05/12 10:38:55;;;;;;;6.32;1.90;;;;;;;16.73;53.38;98688.31;5053484;28;20182;-62
2023/05/12 10:41:31;;;;;;;1.88;1.77;;;;;;;17.17;54.49;98737.41;5053444;28;20555;-61
2023/05/12 10:43:57;;;;;;;1.88;1.75;;;;;;;17.11;52.93;98683.06;5053348;28;20217;-62
2023/05/12 10:46:23;;;;;;;1.80;1.70;;;;;;;17.35;52.97;98649.44;5053356;28;20651;-62
2023/05/12 10:49:03;;;;;;;3.67;2.10;;;;;;;18.03;52.65;98743.34;5053207;28;20173;-62
2023/05/12 10:51:43;;;;;;;1.92;1.83;;;;;;;17.87;53.94;98681.13;5053208;28;20201;-63
2023/05/12 10:54:11;;;;;;;2.33;2.10;;;;;;;18.23;53.08;98716.94;5053204;28;20174;-63
2023/05/12 10:56:39;;;;;;;2.35;2.17;;;;;;;18.51;51.81;98736.97;5053134;28;20271;-63
2023/05/12 10:59:12;;;;;;;2.72;2.03;;;;;;;18.68;51.71;98732.72;5053299;28;20197;-63
2023/05/12 11:01:54;;;;;;;2.22;1.40;;;;;;;18.90;49.84;98727.91;5052986;28;20180;-63
2023/05/12 11:04:21;;;;;;;1.73;1.63;;;;;;;18.74;48.82;98661.34;5053030;28;20636;-64
2023/05/12 11:06:57;;;;;;;1.90;1.77;;;;;;;18.70;49.02;98704.53;5052944;28;20177;-63
2023/05/12 11:09:23;;;;;;;3.38;2.22;;;;;;;18.54;50.65;98704.41;5052840;28;20216;-63
2023/05/12 11:11:49;;;;;;;3.55;1.85;;;;;;;17.83;51.61;98623.97;5052802;28;20196;-64
2023/05/12 11:14:15;;;;;;;4.22;1.80;;;;;;;18.59;52.41;98721.31;5070098;28;20196;-62
2023/05/12 11:16:42;;;;;;;6.55;2.05;;;;;;;18.10;49.98;98668.47;5070237;28;20668;-62
2023/05/12 11:19:08;;;;;;;2.10;1.92;;;;;;;17.38;51.90;98630.88;5069250;28;20717;-62
2023/05/12 11:21:34;;;;;;;2.30;2.10;;;;;;;18.06;51.88;98709.00;5070063;28;20192;-62
2023/05/12 11:24:01;;;;;;;3.10;1.85;;;;;;;17.75;50.24;98636.94;5070067;28;20775;-62
2023/05/12 11:26:27;;;;;;;3.53;2.40;;;;;;;18.38;50.28;98693.72;5069891;28;20176;-62